Time;durP1;ratioP1;P1;durP2;ratioP2;P2;SDS_P1;SDS_P2;PMS_P1;PMS_P2;Temp;Humidity;BMP_temperature;BMP_pressure;BME280_temperature;BME280_humidity;BME280_pressure;Samples;Min_cycle;Max_cycle;Signal;HPM_P1;HPM_P2
2023/06/14 00:00:40;;;;;;;10.65;6.15;;;;;;;19.49;43.92;101318.94;5000132;28;20045;-51
2023/06/14 00:03:17;;;;;;;10.20;5.93;;;;;;;19.45;44.18;101322.13;4993750;28;20026;-49
2023/06/14 00:05:43;;;;;;;9.73;6.20;;;;;;;19.41;43.60;101322.44;5000520;28;20408;-51
2023/06/14 00:08:09;;;;;;;9.65;6.30;;;;;;;19.38;44.06;101330.03;4997269;28;20027;-50
2023/06/14 00:10:35;;;;;;;9.23;6.10;;;;;;;19.31;44.03;101320.91;5000941;28;20026;-49
2023/06/14 00:13:04;;;;;;;10.07;5.85;;;;;;;19.28;44.32;101335.53;5000422;28;20038;-49
2023/06/14 00:15:31;;;;;;;8.60;6.10;;;;;;;19.22;44.13;101325.44;4999737;28;20030;-49
2023/06/14 00:18:00;;;;;;;8.35;5.43;;;;;;;19.20;44.18;101336.38;4998715;28;20026;-50
2023/06/14 00:20:26;;;;;;;8.40;5.63;;;;;;;19.20;43.78;101330.13;5002056;28;20554;-50
2023/06/14 00:22:51;;;;;;;9.07;6.15;;;;;;;19.13;43.87;101337.16;4999858;28;20121;-49
2023/06/14 00:25:17;;;;;;;9.45;5.85;;;;;;;19.04;44.26;101339.00;4996618;28;20080;-50
2023/06/14 00:27:42;;;;;;;7.63;5.57;;;;;;;19.02;43.64;101330.22;5002962;28;20517;-50
2023/06/14 00:30:08;;;;;;;9.57;5.27;;;;;;;19.01;43.25;101336.63;4997659;28;21102;-49
2023/06/14 00:32:33;;;;;;;8.27;5.78;;;;;;;18.98;43.82;101334.25;5000822;28;20277;-50
2023/06/14 00:34:58;;;;;;;8.83;5.30;;;;;;;18.96;43.65;101331.69;5001446;28;20414;-48
2023/06/14 00:37:24;;;;;;;7.70;5.40;;;;;;;18.92;43.74;101338.44;4996769;28;20281;-49
2023/06/14 00:39:49;;;;;;;10.73;5.97;;;;;;;18.89;43.19;101333.34;4997518;28;20038;-50
2023/06/14 00:42:25;;;;;;;8.95;5.18;;;;;;;18.84;43.61;101336.53;5000159;28;20288;-49
2023/06/14 00:44:50;;;;;;;11.48;5.22;;;;;;;18.75;44.38;101332.09;4995478;28;20555;-49
2023/06/14 00:47:15;;;;;;;12.40;5.50;;;;;;;18.74;43.55;101338.47;5000622;28;20121;-48
2023/06/14 00:49:41;;;;;;;6.27;4.90;;;;;;;18.70;43.74;101336.25;4996117;28;20077;-49
2023/06/14 00:52:07;;;;;;;7.88;4.90;;;;;;;18.73;43.61;101338.63;4999395;28;20371;-49
2023/06/14 00:54:32;;;;;;;7.95;5.35;;;;;;;18.65;43.44;101331.31;5001156;28;20030;-49
2023/06/14 00:56:58;;;;;;;6.88;5.18;;;;;;;18.64;42.83;101329.66;5000284;28;20133;-50
2023/06/14 00:59:23;;;;;;;7.28;5.13;;;;;;;18.60;43.44;101341.72;4994199;28;20499;-48
2023/06/14 01:01:48;;;;;;;8.13;5.10;;;;;;;18.60;42.89;101334.50;4999056;28;20061;-48
2023/06/14 01:04:14;;;;;;;9.20;4.93;;;;;;;18.55;42.77;101341.34;5000629;28;20036;-48
2023/06/14 01:06:50;;;;;;;11.05;4.85;;;;;;;18.49;43.18;101340.16;5001434;28;20022;-49
2023/06/14 01:09:28;;;;;;;9.80;4.40;;;;;;;18.49;43.25;101342.84;4997858;28;20121;-49
2023/06/14 01:12:04;;;;;;;5.95;4.57;;;;;;;18.42;43.32;101334.56;5001186;28;20095;-49
2023/06/14 01:14:32;;;;;;;8.95;5.50;;;;;;;18.42;43.12;101347.16;4997401;28;20368;-49
2023/06/14 01:16:59;;;;;;;7.35;4.95;;;;;;;18.34;42.96;101337.19;5002108;28;20041;-50
2023/06/14 01:19:25;;;;;;;6.90;4.93;;;;;;;18.34;42.79;101337.19;4996256;28;20041;-49
2023/06/14 01:21:50;;;;;;;8.10;5.10;;;;;;;18.30;42.09;101343.84;5000679;28;20105;-50
2023/06/14 01:24:19;;;;;;;6.53;4.50;;;;;;;18.28;42.14;101344.00;4999124;28;20709;-50
2023/06/14 01:26:46;;;;;;;7.10;5.10;;;;;;;18.25;42.00;101338.09;5000223;28;20088;-49
2023/06/14 01:29:16;;;;;;;8.52;5.10;;;;;;;18.22;42.25;101339.28;4998224;28;20026;-48
2023/06/14 01:31:41;;;;;;;8.40;4.70;;;;;;;18.21;41.88;101336.75;4999856;28;20125;-50
2023/06/14 01:34:08;;;;;;;8.57;4.47;;;;;;;18.19;42.18;101344.97;4997245;28;20114;-51
2023/06/14 01:36:36;;;;;;;6.40;4.70;;;;;;;18.16;41.92;101341.75;5001412;28;20042;-50
2023/06/14 01:39:01;;;;;;;8.75;4.57;;;;;;;18.15;42.08;101345.41;5002389;28;20041;-50
2023/06/14 01:41:27;;;;;;;7.13;4.45;;;;;;;18.11;41.69;101340.34;5004020;28;20027;-49
2023/06/14 01:43:53;;;;;;;6.50;4.57;;;;;;;18.09;41.95;101344.22;5004350;28;20031;-48
2023/06/14 01:46:19;;;;;;;7.75;4.60;;;;;;;18.06;41.67;101344.50;5004693;28;20088;-49
2023/06/14 01:48:45;;;;;;;8.77;5.00;;;;;;;18.03;41.52;101339.44;5002939;28;20054;-49
2023/06/14 01:51:10;;;;;;;7.80;4.57;;;;;;;18.00;41.85;101345.13;5002217;28;20066;-48
2023/06/14 01:53:36;;;;;;;7.93;4.72;;;;;;;17.96;41.90;101335.69;5002230;28;20042;-49
2023/06/14 01:56:01;;;;;;;6.90;4.07;;;;;;;17.89;41.79;101341.66;5002754;28;20026;-50
2023/06/14 01:58:27;;;;;;;9.43;4.82;;;;;;;17.90;41.57;101338.00;5001094;28;20033;-49
2023/06/14 02:00:55;;;;;;;7.18;4.68;;;;;;;17.89;41.71;101343.53;5001633;28;20061;-49
2023/06/14 02:03:20;;;;;;;7.25;4.47;;;;;;;17.86;41.72;101341.94;5003634;28;20038;-49
2023/06/14 02:05:46;;;;;;;5.70;4.28;;;;;;;17.84;42.05;101346.63;5003938;28;20050;-49
2023/06/14 02:08:11;;;;;;;7.45;4.50;;;;;;;17.83;41.72;101339.56;5003168;28;20038;-49
2023/06/14 02:10:36;;;;;;;9.05;4.55;;;;;;;17.80;41.89;101339.84;5003903;28;20031;-48
2023/06/14 02:13:02;;;;;;;12.55;4.63;;;;;;;17.77;41.92;101340.19;5002472;28;20164;-50
2023/06/14 02:15:33;;;;;;;9.10;4.53;;;;;;;17.72;42.42;101339.81;5004998;28;20480;-49
2023/06/14 02:18:00;;;;;;;6.30;4.28;;;;;;;17.75;42.15;101350.22;4998276;28;20034;-51
2023/06/14 02:20:25;;;;;;;8.60;4.55;;;;;;;17.71;42.16;101344.31;5002941;28;20045;-49
2023/06/14 02:22:50;;;;;;;6.65;4.40;;;;;;;17.68;42.36;101341.09;4999194;28;20030;-49
2023/06/14 02:25:16;;;;;;;6.97;4.20;;;;;;;17.65;42.43;101339.56;5002208;28;20034;-49
2023/06/14 02:27:41;;;;;;;5.97;4.30;;;;;;;17.66;42.71;101343.91;5001586;28;20913;-48
2023/06/14 02:30:07;;;;;;;11.23;4.30;;;;;;;17.62;42.61;101339.88;5003300;28;20043;-49
2023/06/14 02:32:35;;;;;;;6.72;4.00;;;;;;;17.62;42.57;101341.69;5000197;28;20040;-51
2023/06/14 02:35:00;;;;;;;7.88;4.70;;;;;;;17.57;42.71;101350.22;5002993;28;20076;-49
2023/06/14 02:37:26;;;;;;;7.80;4.25;;;;;;;17.55;43.04;101347.69;5001887;28;20435;-49
2023/06/14 02:39:51;;;;;;;8.20;4.40;;;;;;;17.54;42.94;101351.34;5003322;28;20699;-49
2023/06/14 02:42:16;;;;;;;6.70;4.40;;;;;;;17.49;43.18;101356.34;5001592;28;20372;-49
2023/06/14 02:44:43;;;;;;;6.93;4.57;;;;;;;17.48;43.04;101354.63;5001420;28;20359;-49
2023/06/14 02:47:08;;;;;;;8.95;4.22;;;;;;;17.43;43.02;101356.94;4998375;28;20468;-49
2023/06/14 02:49:34;;;;;;;8.02;4.72;;;;;;;17.41;43.21;101355.41;5001549;28;20038;-48
2023/06/14 02:51:59;;;;;;;7.28;4.80;;;;;;;17.37;43.33;101358.38;5002548;28;20477;-48
2023/06/14 02:54:25;;;;;;;7.22;4.20;;;;;;;17.38;43.10;101361.91;5002230;28;20475;-49
2023/06/14 02:56:50;;;;;;;6.57;4.20;;;;;;;17.34;43.85;101358.69;5003734;28;20471;-50
2023/06/14 02:59:16;;;;;;;5.57;4.53;;;;;;;17.30;43.83;101356.44;5003327;28;20135;-50
2023/06/14 03:01:42;;;;;;;6.82;4.00;;;;;;;17.29;43.55;101355.59;4991407;28;20030;-49
2023/06/14 03:04:08;;;;;;;7.45;4.30;;;;;;;17.26;44.06;101355.06;4999646;28;20056;-49
2023/06/14 03:06:33;;;;;;;5.78;4.13;;;;;;;17.23;43.90;101363.41;4998191;28;20053;-47
2023/06/14 03:09:00;;;;;;;11.45;4.70;;;;;;;17.26;43.69;101368.47;4996922;28;20049;-49
2023/06/14 03:11:26;;;;;;;6.65;4.05;;;;;;;17.23;44.13;101364.22;5000460;28;20547;-49
2023/06/14 03:13:52;;;;;;;7.68;4.65;;;;;;;17.19;44.23;101370.91;5001571;28;20105;-49
2023/06/14 03:16:21;;;;;;;7.18;4.50;;;;;;;17.16;44.28;101374.72;4996418;28;20030;-50
2023/06/14 03:18:48;;;;;;;9.52;4.68;;;;;;;17.09;44.41;101362.06;5000039;28;20362;-49
2023/06/14 03:21:15;;;;;;;8.65;4.75;;;;;;;17.10;44.32;101374.47;4997690;28;20128;-51
2023/06/14 03:23:41;;;;;;;7.78;4.20;;;;;;;17.09;44.49;101375.47;4997058;28;20116;-52
2023/06/14 03:26:06;;;;;;;7.55;4.70;;;;;;;17.05;44.63;101374.06;4999161;28;20105;-51
2023/06/14 03:28:31;;;;;;;8.80;4.47;;;;;;;17.04;44.80;101375.03;4997395;28;20442;-53
2023/06/14 03:30:56;;;;;;;12.00;4.90;;;;;;;17.00;44.57;101378.03;5001169;28;20057;-50
2023/06/14 03:33:22;;;;;;;7.60;4.73;;;;;;;16.99;45.01;101378.19;4998232;28;20293;-48
2023/06/14 03:35:47;;;;;;;8.90;4.70;;;;;;;16.97;45.15;101381.03;4995801;28;20289;-51
2023/06/14 03:38:12;;;;;;;7.07;4.78;;;;;;;16.94;45.26;101375.94;4998280;28;20034;-51
2023/06/14 03:40:38;;;;;;;9.23;4.73;;;;;;;16.94;45.46;101380.47;4999373;28;20040;-50
2023/06/14 03:43:03;;;;;;;9.30;4.57;;;;;;;16.91;45.26;101380.75;5000795;28;20288;-51
2023/06/14 03:45:28;;;;;;;6.10;4.50;;;;;;;16.89;45.55;101383.59;5001818;28;20025;-48
2023/06/14 03:47:54;;;;;;;9.93;4.70;;;;;;;16.89;45.57;101385.44;4996271;28;20065;-49
2023/06/14 03:50:20;;;;;;;8.65;4.65;;;;;;;16.88;45.62;101384.56;4997687;28;20286;-51
2023/06/14 03:52:45;;;;;;;7.50;4.78;;;;;;;16.85;45.76;101392.91;4998158;28;20531;-49
2023/06/14 03:55:13;;;;;;;9.38;4.57;;;;;;;16.85;45.74;101389.38;4999168;28;20117;-51
2023/06/14 03:57:38;;;;;;;6.40;4.40;;;;;;;16.83;45.79;101394.84;5001881;28;20603;-51
2023/06/14 04:00:05;;;;;;;8.50;4.60;;;;;;;16.85;45.97;101392.91;4998554;28;20034;-49
2023/06/14 04:02:31;;;;;;;7.47;4.45;;;;;;;16.81;46.26;101400.38;4999655;28;20045;-49
2023/06/14 04:04:56;;;;;;;7.75;4.55;;;;;;;16.81;46.28;101395.00;5001732;28;20022;-51
2023/06/14 04:07:22;;;;;;;9.97;5.03;;;;;;;16.76;46.39;101402.63;5001308;28;20113;-49
2023/06/14 04:09:47;;;;;;;11.45;4.95;;;;;;;16.77;46.61;101404.34;4997225;28;20270;-49
2023/06/14 04:12:13;;;;;;;7.28;4.75;;;;;;;16.72;46.90;101398.56;4999811;28;20108;-50
2023/06/14 04:14:39;;;;;;;8.70;4.63;;;;;;;16.74;46.58;101407.31;4996173;28;20037;-52
2023/06/14 04:17:05;;;;;;;6.28;4.75;;;;;;;16.70;46.99;101410.41;4999186;28;20121;-49
2023/06/14 04:19:30;;;;;;;8.43;5.22;;;;;;;16.70;47.14;101407.72;5000488;28;20093;-50
2023/06/14 04:21:55;;;;;;;9.00;5.50;;;;;;;16.67;47.15;101400.84;4997876;28;20032;-50
2023/06/14 04:24:21;;;;;;;13.10;4.70;;;;;;;16.65;47.23;101403.66;5003155;28;20684;-48
2023/06/14 04:26:47;;;;;;;7.80;5.00;;;;;;;16.69;47.24;101409.56;4999989;28;20021;-49
2023/06/14 04:29:15;;;;;;;9.18;4.93;;;;;;;16.67;47.35;101408.00;5000026;28;20493;-49
2023/06/14 04:31:41;;;;;;;9.13;4.55;;;;;;;16.69;47.63;101412.25;5003391;28;20054;-49
2023/06/14 04:34:07;;;;;;;9.75;5.22;;;;;;;16.71;47.33;101404.91;4996799;28;20357;-49
2023/06/14 04:36:34;;;;;;;10.23;4.70;;;;;;;16.73;47.64;101412.81;4999436;28;20121;-49
2023/06/14 04:39:00;;;;;;;9.52;4.97;;;;;;;16.80;47.27;101414.78;5003064;28;20105;-50
2023/06/14 04:41:30;;;;;;;10.90;4.88;;;;;;;16.85;47.61;101408.16;4997442;28;20034;-50
2023/06/14 04:43:57;;;;;;;7.75;5.05;;;;;;;16.89;47.53;101418.47;5004244;28;20472;-50
2023/06/14 04:46:22;;;;;;;12.50;5.18;;;;;;;16.94;47.38;101424.25;5000002;28;20077;-48
2023/06/14 04:48:47;;;;;;;13.45;4.85;;;;;;;17.01;47.65;101413.78;4999140;28;20050;-48
2023/06/14 04:51:13;;;;;;;7.63;5.28;;;;;;;17.13;47.20;101426.00;4997628;28;20026;-49
2023/06/14 04:53:38;;;;;;;9.55;5.18;;;;;;;17.19;46.94;101425.44;4995653;28;20034;-49
2023/06/14 04:56:04;;;;;;;11.40;5.15;;;;;;;17.22;46.97;101418.06;4995341;28;20019;-50
2023/06/14 04:58:29;;;;;;;7.80;4.82;;;;;;;17.31;47.02;101420.72;4994415;28;20506;-50
2023/06/14 05:00:56;;;;;;;8.15;4.97;;;;;;;17.45;46.92;101422.06;4998916;28;20121;-49
2023/06/14 05:03:24;;;;;;;10.27;5.20;;;;;;;17.51;46.73;101426.84;4997052;28;20034;-51
2023/06/14 05:05:50;;;;;;;7.20;4.75;;;;;;;17.60;46.56;101426.94;4997431;28;20022;-50
2023/06/14 05:08:16;;;;;;;11.40;5.32;;;;;;;17.72;46.52;101428.47;4997425;28;20059;-52
2023/06/14 05:10:41;;;;;;;12.43;5.22;;;;;;;17.86;46.33;101432.47;4998359;28;20528;-51
2023/06/14 05:13:06;;;;;;;7.60;5.00;;;;;;;17.97;46.08;101429.59;5000336;28;20034;-49
2023/06/14 05:15:32;;;;;;;11.70;4.90;;;;;;;17.99;46.01;101430.28;5007141;28;20499;-49
2023/06/14 05:17:57;;;;;;;12.93;5.22;;;;;;;18.02;45.76;101430.00;5002418;28;20036;-48
2023/06/14 05:20:26;;;;;;;13.20;5.68;;;;;;;18.08;45.99;101433.91;5001525;28;20117;-49
2023/06/14 05:22:53;;;;;;;12.75;5.28;;;;;;;18.08;45.28;101432.03;4999709;28;20030;-49
2023/06/14 05:25:20;;;;;;;9.15;5.05;;;;;;;18.17;45.84;101440.19;5001206;28;20038;-50
2023/06/14 05:27:45;;;;;;;13.98;5.95;;;;;;;18.27;46.11;101436.44;5002619;28;20505;-50
2023/06/14 05:30:11;;;;;;;8.13;4.80;;;;;;;18.32;45.67;101441.38;5002318;28;20082;-52
2023/06/14 05:32:37;;;;;;;11.05;4.75;;;;;;;18.44;45.13;101436.59;5006611;28;20049;-49
2023/06/14 05:35:02;;;;;;;11.27;5.20;;;;;;;18.56;45.28;101438.03;5000712;28;20030;-48
2023/06/14 05:37:27;;;;;;;9.52;5.47;;;;;;;18.68;44.69;101435.94;5003410;28;20041;-49
2023/06/14 05:39:52;;;;;;;9.30;5.20;;;;;;;18.82;44.43;101439.94;4999863;28;20027;-49
2023/06/14 05:42:18;;;;;;;14.10;5.70;;;;;;;19.03;44.12;101439.59;5000442;28;20050;-51
2023/06/14 05:44:43;;;;;;;9.00;6.17;;;;;;;19.19;43.92;101445.06;5000122;28;20823;-51
2023/06/14 05:47:08;;;;;;;6.53;4.83;;;;;;;19.37;43.55;101442.31;5002351;28;20340;-49
2023/06/14 05:49:33;;;;;;;10.03;4.50;;;;;;;19.55;43.35;101450.31;5000175;28;20300;-48
2023/06/14 05:51:59;;;;;;;6.63;4.88;;;;;;;19.72;42.65;101445.84;5002641;28;20366;-50
2023/06/14 05:54:24;;;;;;;12.23;4.72;;;;;;;19.87;42.64;101446.09;5000123;28;20110;-49
2023/06/14 05:56:49;;;;;;;9.87;4.90;;;;;;;20.06;42.44;101450.34;5002309;28;20041;-48
2023/06/14 05:59:15;;;;;;;9.40;4.80;;;;;;;20.20;42.00;101448.00;4997837;28;20309;-49
2023/06/14 06:01:40;;;;;;;12.70;4.57;;;;;;;20.34;42.02;101452.75;4992501;28;20297;-48
2023/06/14 06:04:06;;;;;;;11.33;5.33;;;;;;;20.51;41.30;101450.91;5002368;28;20285;-50
2023/06/14 06:06:32;;;;;;;9.90;4.35;;;;;;;20.76;41.15;101454.47;5003194;28;20630;-49
2023/06/14 06:08:57;;;;;;;8.80;4.95;;;;;;;20.84;40.65;101448.22;4999327;28;20081;-48
2023/06/14 06:11:23;;;;;;;7.30;4.35;;;;;;;21.01;40.31;101449.88;4998118;28;20476;-50
2023/06/14 06:13:48;;;;;;;7.78;4.63;;;;;;;21.33;40.46;101456.22;5003868;28;20037;-50
2023/06/14 06:16:15;;;;;;;9.63;5.43;;;;;;;21.34;39.71;101460.59;5001800;28;20018;-50
2023/06/14 06:18:40;;;;;;;8.68;4.63;;;;;;;21.54;39.24;101461.06;4998552;28;20073;-49
2023/06/14 06:21:06;;;;;;;8.95;4.35;;;;;;;21.72;39.05;101465.41;5001090;28;20046;-49
2023/06/14 06:23:31;;;;;;;8.93;4.78;;;;;;;21.74;38.72;101474.19;5000047;28;20038;-50
2023/06/14 06:25:56;;;;;;;6.20;4.10;;;;;;;21.85;38.19;101473.81;5000743;28;20061;-51
2023/06/14 06:28:22;;;;;;;9.90;4.70;;;;;;;21.96;38.12;101476.09;5000418;28;20121;-51
2023/06/14 06:30:47;;;;;;;12.53;4.27;;;;;;;22.14;38.07;101475.00;5001544;28;20074;-50
2023/06/14 06:33:13;;;;;;;7.85;4.22;;;;;;;22.27;37.91;101479.81;4998277;28;20300;-52
2023/06/14 06:35:39;;;;;;;7.03;4.22;;;;;;;22.43;37.50;101484.28;5000341;28;20037;-49
2023/06/14 06:38:04;;;;;;;7.25;3.80;;;;;;;22.53;36.93;101479.47;5000728;28;20030;-49
2023/06/14 06:40:30;;;;;;;7.25;3.55;;;;;;;22.55;36.77;101488.28;4997387;28;20060;-49
2023/06/14 06:42:55;;;;;;;7.25;4.03;;;;;;;22.68;36.46;101484.94;5000932;28;20488;-50
2023/06/14 06:45:21;;;;;;;7.65;4.13;;;;;;;22.88;36.27;101486.13;5002296;28;20057;-50
2023/06/14 06:47:46;;;;;;;8.48;3.70;;;;;;;22.99;36.09;101487.53;5000230;28;20050;-51
2023/06/14 06:50:11;;;;;;;5.57;3.93;;;;;;;23.16;34.99;101485.53;5001989;28;20334;-49
2023/06/14 06:52:37;;;;;;;8.80;3.80;;;;;;;23.36;34.98;101485.84;4999258;28;20300;-50
2023/06/14 06:55:03;;;;;;;6.45;3.78;;;;;;;23.48;34.79;101502.47;5001383;28;20556;-49
2023/06/14 06:57:29;;;;;;;5.88;3.30;;;;;;;23.78;34.69;101497.03;5001958;28;20031;-49
2023/06/14 06:59:54;;;;;;;9.27;3.60;;;;;;;24.01;34.03;101494.22;4998583;28;20065;-50
2023/06/14 07:02:19;;;;;;;8.77;3.85;;;;;;;24.15;33.37;101493.34;5003488;28;20034;-49
2023/06/14 07:04:45;;;;;;;8.83;3.90;;;;;;;24.34;33.51;101493.75;4998874;28;20113;-50
2023/06/14 07:07:10;;;;;;;7.18;3.42;;;;;;;24.55;33.51;101495.69;4998560;28;20289;-49
2023/06/14 07:09:36;;;;;;;4.13;3.33;;;;;;;24.79;33.71;101497.13;5000458;28;20450;-49
2023/06/14 07:12:01;;;;;;;6.10;3.53;;;;;;;24.97;32.93;101502.09;5002981;28;20115;-49
2023/06/14 07:14:27;;;;;;;9.95;4.50;;;;;;;24.98;32.32;101509.22;4999828;28;20088;-50
2023/06/14 07:16:52;;;;;;;8.65;3.08;;;;;;;25.07;32.68;101508.00;5000517;28;20026;-50
2023/06/14 07:19:17;;;;;;;9.98;3.60;;;;;;;25.19;32.58;101511.03;4997632;28;20061;-50
2023/06/14 07:21:43;;;;;;;5.25;3.30;;;;;;;25.21;32.23;101511.66;4999737;28;20022;-52
2023/06/14 07:24:08;;;;;;;7.93;3.67;;;;;;;25.33;32.06;101512.00;4997980;28;20110;-51
2023/06/14 07:26:35;;;;;;;8.27;3.38;;;;;;;25.46;31.82;101514.81;5003803;28;20022;-50
2023/06/14 07:29:01;;;;;;;8.45;3.65;;;;;;;25.77;31.31;101516.22;5000677;28;20648;-50
2023/06/14 07:31:27;;;;;;;6.85;3.20;;;;;;;26.18;30.76;101519.94;4997711;28;20056;-50
2023/06/14 07:33:52;;;;;;;6.47;3.15;;;;;;;26.27;30.75;101512.47;4998321;28;20387;-53
2023/06/14 07:36:17;;;;;;;9.20;3.83;;;;;;;26.44;30.76;101519.19;4997171;28;20053;-53
2023/06/14 07:38:43;;;;;;;6.75;2.90;;;;;;;26.71;29.97;101521.97;4998053;28;20093;-52
2023/06/14 07:41:08;;;;;;;9.82;3.40;;;;;;;26.68;29.69;101522.38;4999438;28;20101;-50
2023/06/14 07:43:34;;;;;;;7.47;3.33;;;;;;;26.98;29.74;101535.63;4996844;28;20034;-49
2023/06/14 07:45:59;;;;;;;5.28;3.35;;;;;;;27.09;29.20;101530.34;5000040;28;20439;-51
2023/06/14 07:48:25;;;;;;;11.30;3.33;;;;;;;27.39;29.67;101534.56;4999064;28;20029;-53
2023/06/14 07:50:50;;;;;;;8.27;3.20;;;;;;;27.65;28.65;101528.22;5000261;28;20033;-51
2023/06/14 07:53:15;;;;;;;6.60;3.40;;;;;;;27.85;29.37;101528.97;4998451;28;20026;-50
2023/06/14 07:55:43;;;;;;;9.30;3.63;;;;;;;27.87;27.90;101528.75;4999324;28;20649;-50
2023/06/14 07:58:10;;;;;;;10.43;3.42;;;;;;;27.77;27.64;101533.84;5002098;28;20285;-50
2023/06/14 08:00:35;;;;;;;7.07;2.83;;;;;;;27.87;27.68;101536.94;5003475;28;20034;-51
2023/06/14 08:03:01;;;;;;;9.70;3.20;;;;;;;27.83;27.78;101546.63;4998065;28;20041;-50
2023/06/14 08:05:27;;;;;;;6.30;3.22;;;;;;;27.73;27.63;101538.91;5003264;28;20026;-49
2023/06/14 08:07:53;;;;;;;10.43;3.60;;;;;;;27.87;27.52;101543.22;4998133;28;20029;-50
2023/06/14 08:10:18;;;;;;;8.00;3.15;;;;;;;28.04;27.73;101548.25;4999865;28;20021;-51
2023/06/14 08:12:44;;;;;;;10.80;3.50;;;;;;;27.96;27.13;101543.88;4997843;28;20034;-50
2023/06/14 08:15:10;;;;;;;5.70;2.80;;;;;;;28.07;26.47;101550.53;4999438;28;20084;-51
2023/06/14 08:17:36;;;;;;;7.32;2.75;;;;;;;27.99;26.27;101558.97;4998954;28;20502;-50
2023/06/14 08:20:02;;;;;;;5.72;2.60;;;;;;;27.83;25.48;101544.72;4999898;28;20037;-49
2023/06/14 08:22:31;;;;;;;8.98;2.90;;;;;;;28.10;26.03;101543.81;4997895;28;20511;-51
2023/06/14 08:24:57;;;;;;;7.82;2.90;;;;;;;28.15;25.58;101539.38;4999327;28;20491;-50
2023/06/14 08:27:22;;;;;;;7.72;3.05;;;;;;;28.30;25.89;101541.81;4994823;28;20054;-49
2023/06/14 08:29:47;;;;;;;8.75;2.75;;;;;;;28.60;25.75;101536.59;4998194;28;20022;-48
2023/06/14 08:32:13;;;;;;;7.33;2.67;;;;;;;28.51;25.13;101532.44;4998285;28;20765;-50
2023/06/14 08:34:38;;;;;;;9.13;2.63;;;;;;;28.68;25.67;101532.78;5001182;28;20026;-50
2023/06/14 08:37:04;;;;;;;6.05;2.53;;;;;;;28.83;25.34;101532.47;4993106;28;20376;-49
2023/06/14 08:39:29;;;;;;;4.13;2.65;;;;;;;29.01;24.98;101534.41;5000442;28;20026;-53
2023/06/14 08:41:56;;;;;;;6.17;2.77;;;;;;;29.23;25.04;101540.34;4994945;28;20033;-52
2023/06/14 08:44:21;;;;;;;10.95;2.85;;;;;;;29.33;24.87;101540.66;5000229;28;20289;-50
2023/06/14 08:46:48;;;;;;;5.67;2.60;;;;;;;29.23;24.33;101540.34;4998972;28;20114;-49
2023/06/14 08:49:16;;;;;;;7.97;2.50;;;;;;;29.51;24.59;101533.50;5003691;28;20293;-51
2023/06/14 08:51:43;;;;;;;;;;;;;;;29.87;25.03;101531.88;5000112;28;20048;-50
2023/06/14 08:54:11;;;;;;;7.60;2.47;;;;;;;29.96;24.03;101535.97;5002540;28;20413;-48
2023/06/14 08:56:38;;;;;;;11.45;2.55;;;;;;;29.89;23.93;101527.00;5004324;28;20065;-48
2023/06/14 08:59:04;;;;;;;8.68;2.97;;;;;;;30.24;23.92;101534.53;5000889;28;20025;-50
2023/06/14 09:01:34;;;;;;;6.53;2.30;;;;;;;30.47;23.55;101538.47;5000471;28;20039;-50
2023/06/14 09:03:59;;;;;;;5.78;2.17;;;;;;;30.22;22.67;101528.47;5002086;28;20043;-48
2023/06/14 09:06:25;;;;;;;5.90;2.35;;;;;;;30.30;22.23;101544.56;5001285;28;20084;-48
2023/06/14 09:08:50;;;;;;;4.82;2.20;;;;;;;30.29;21.97;101547.53;4999581;28;20696;-50
2023/06/14 09:11:18;;;;;;;3.45;2.00;;;;;;;30.48;22.17;101545.59;5001102;28;20160;-49
2023/06/14 09:13:49;;;;;;;4.60;1.92;;;;;;;30.40;21.19;101549.53;4998349;28;20034;-50
2023/06/14 09:16:15;;;;;;;6.20;2.17;;;;;;;30.42;21.42;101542.72;5000160;28;20026;-50
2023/06/14 09:18:47;;;;;;;6.03;2.10;;;;;;;30.51;20.93;101548.75;5004914;28;20035;-50
2023/06/14 09:21:13;;;;;;;3.65;1.80;;;;;;;30.52;21.33;101531.19;5004854;28;20026;-50
2023/06/14 09:23:44;;;;;;;40.13;6.78;;;;;;;30.62;22.47;101536.94;5002616;28;20187;-50
2023/06/14 09:26:19;;;;;;;26.90;5.13;;;;;;;31.07;21.53;101541.09;5002413;28;20128;-50
2023/06/14 09:28:46;;;;;;;19.45;3.47;;;;;;;31.52;21.29;101548.75;5005248;28;20106;-50
2023/06/14 09:31:13;;;;;;;5.72;2.08;;;;;;;31.68;19.96;101543.59;5004400;28;20073;-50
2023/06/14 09:33:38;;;;;;;5.05;1.98;;;;;;;31.72;20.41;101534.63;5000034;28;20019;-51
2023/06/14 09:36:09;;;;;;;8.75;2.08;;;;;;;31.75;19.70;101540.72;5002710;28;20037;-52
2023/06/14 09:38:34;;;;;;;4.60;1.70;;;;;;;31.67;19.26;101548.25;5002838;28;20050;-50
2023/06/14 09:41:03;;;;;;;2.22;1.63;;;;;;;31.77;18.75;101547.63;5001024;28;20073;-50
2023/06/14 09:43:28;;;;;;;2.63;1.30;;;;;;;31.31;18.09;101546.56;5000557;28;20356;-50
2023/06/14 09:45:54;;;;;;;5.03;1.88;;;;;;;31.41;19.00;101545.97;5002618;28;20088;-50
2023/06/14 09:48:20;;;;;;;1.85;1.30;;;;;;;31.71;18.75;101557.69;4998299;28;20161;-50
2023/06/14 09:50:47;;;;;;;3.28;1.48;;;;;;;32.18;18.75;101548.47;5002671;28;20121;-51
2023/06/14 09:53:13;;;;;;;1.77;1.38;;;;;;;32.14;17.59;101536.28;4997495;28;20026;-49
2023/06/14 09:55:41;;;;;;;1.40;1.30;;;;;;;32.00;17.76;101560.47;5002251;28;20034;-49
2023/06/14 09:58:07;;;;;;;2.87;1.40;;;;;;;32.10;18.38;101543.38;5000032;28;20497;-51
2023/06/14 10:00:34;;;;;;;1.40;1.30;;;;;;;32.21;18.72;101544.41;5004664;28;20033;-49
2023/06/14 10:03:06;;;;;;;2.65;1.33;;;;;;;32.43;17.87;101539.06;5000541;28;20022;-49
2023/06/14 10:05:33;;;;;;;2.13;1.10;;;;;;;32.64;18.51;101540.25;5000691;28;20026;-49
2023/06/14 10:08:03;;;;;;;3.50;1.30;;;;;;;32.76;17.41;101537.44;5000830;28;20030;-52
2023/06/14 10:10:28;;;;;;;3.08;1.55;;;;;;;32.63;17.89;101535.84;5006489;28;20169;-51
2023/06/14 10:12:54;;;;;;;2.47;1.33;;;;;;;32.35;17.81;101528.47;4996540;28;22113;-51
2023/06/14 10:15:28;;;;;;;5.20;1.40;;;;;;;32.20;17.99;101529.00;5001828;28;20057;-50
2023/06/14 10:17:59;;;;;;;1.67;1.25;;;;;;;32.10;18.23;101540.63;5001676;28;20030;-49
2023/06/14 10:20:30;;;;;;;2.70;1.33;;;;;;;32.28;18.02;101532.19;5001608;28;20026;-49
2023/06/14 10:23:08;;;;;;;3.85;1.55;;;;;;;32.37;18.58;101537.28;5003017;28;20041;-49
2023/06/14 10:25:34;;;;;;;;;;;;;;;32.87;18.60;101525.50;5000969;28;20022;-50
2023/06/14 10:28:17;;;;;;;5.85;1.38;;;;;;;32.50;18.38;101536.16;5002290;28;20374;-50
2023/06/14 10:31:03;;;;;;;2.38;1.58;;;;;;;32.48;17.93;101538.31;5000867;28;20053;-50
2023/06/14 10:33:29;;;;;;;2.45;1.17;;;;;;;32.26;17.70;101536.28;4997371;28;20054;-53
2023/06/14 10:36:07;;;;;;;4.18;1.40;;;;;;;32.82;18.30;101539.19;5007075;28;20073;-52
2023/06/14 10:38:34;;;;;;;2.45;1.42;;;;;;;32.72;17.91;101545.34;5003831;28;20501;-49
2023/06/14 10:41:00;;;;;;;2.53;1.30;;;;;;;32.73;17.63;101537.94;5009259;28;20117;-52
2023/06/14 10:43:25;;;;;;;1.65;1.45;;;;;;;32.60;17.87;101545.41;5006326;28;20389;-51
2023/06/14 10:46:12;;;;;;;3.25;1.58;;;;;;;32.76;18.42;101531.94;5004838;28;20061;-49
2023/06/14 10:48:41;;;;;;;7.43;1.40;;;;;;;32.78;17.35;101538.03;4996852;28;20544;-51
2023/06/14 10:51:16;;;;;;;4.50;1.70;;;;;;;32.69;17.63;101539.50;4998622;28;20459;-51
2023/06/14 10:53:42;;;;;;;3.22;1.95;;;;;;;32.63;17.29;101547.69;4999908;28;20088;-51
2023/06/14 10:56:08;;;;;;;2.92;1.45;;;;;;;32.74;17.64;101534.09;5005481;28;20023;-50
2023/06/14 10:58:33;;;;;;;5.78;2.10;;;;;;;32.76;17.53;101534.69;4999146;28;20081;-53
2023/06/14 11:00:59;;;;;;;4.40;1.40;;;;;;;32.68;17.39;101530.44;4998898;28;20038;-52
2023/06/14 11:03:51;;;;;;;2.40;1.38;;;;;;;32.40;18.24;101550.53;5000859;28;20446;-51
2023/06/14 11:06:23;;;;;;;2.15;1.70;;;;;;;32.30;18.31;101544.84;4997175;28;20093;-50
2023/06/14 11:09:30;;;;;;;3.40;1.40;;;;;;;32.70;18.29;101546.69;4995245;28;20121;-51
2023/06/14 11:11:56;;;;;;;2.47;1.50;;;;;;;32.36;18.38;101536.47;4999404;28;20033;-49
2023/06/14 11:14:22;;;;;;;2.95;1.63;;;;;;;32.65;17.67;101536.44;4999739;28;20479;-52
2023/06/14 11:16:48;;;;;;;2.47;1.43;;;;;;;32.82;17.93;101534.50;5001285;28;20032;-49
2023/06/14 11:19:14;;;;;;;3.67;1.60;;;;;;;33.25;17.31;101526.66;4998121;28;20313;-51
2023/06/14 11:21:42;;;;;;;2.10;1.42;;;;;;;33.27;17.29;101535.50;5002371;28;20084;-53